Time;durP1;ratioP1;P1;durP2;ratioP2;P2;SDS_P1;SDS_P2;PMS_P1;PMS_P2;Temp;Humidity;BMP_temperature;BMP_pressure;BME280_temperature;BME280_humidity;BME280_pressure;Samples;Min_cycle;Max_cycle;Signal;HPM_P1;HPM_P2
2021/07/13 00:02:19;;;;;;;17.65;15.93;;;;;;;19.39;80.08;97927.53;5024881;28;20049;-64
2021/07/13 00:04:45;;;;;;;17.00;15.23;;;;;;;19.39;79.97;97932.72;5028164;28;20154;-63
2021/07/13 00:07:10;;;;;;;16.50;14.90;;;;;;;19.35;80.59;97941.66;5023337;28;20338;-63
2021/07/13 00:09:35;;;;;;;17.60;15.88;;;;;;;19.32;81.19;97940.06;5026760;28;20029;-63
2021/07/13 00:12:01;;;;;;;17.90;16.10;;;;;;;19.32;81.70;97941.84;5028243;28;20049;-63
2021/07/13 00:14:27;;;;;;;15.90;14.40;;;;;;;19.32;81.75;97937.47;5024960;28;20370;-63
2021/07/13 00:16:53;;;;;;;16.60;15.00;;;;;;;19.31;82.58;97930.59;5028697;28;20045;-63
2021/07/13 00:19:18;;;;;;;15.77;14.43;;;;;;;19.27;82.31;97930.91;5029524;28;20088;-63
2021/07/13 00:21:44;;;;;;;14.73;13.43;;;;;;;19.30;82.44;97941.13;5030393;28;20270;-63
2021/07/13 00:24:11;;;;;;;15.50;14.10;;;;;;;19.31;81.95;97946.19;5027260;28;20060;-63
2021/07/13 00:26:36;;;;;;;14.65;13.25;;;;;;;19.27;81.80;97938.69;5030361;28;20091;-63
2021/07/13 00:29:05;;;;;;;14.05;12.60;;;;;;;19.30;81.82;97941.13;5026593;28;20038;-63
2021/07/13 00:31:31;;;;;;;14.13;12.82;;;;;;;19.29;81.44;97932.50;5025745;28;20314;-63
2021/07/13 00:33:58;;;;;;;13.23;11.90;;;;;;;19.31;80.79;97929.81;5026463;28;20033;-63
2021/07/13 00:36:24;;;;;;;13.85;12.45;;;;;;;19.35;79.50;97928.66;5024796;28;20030;-63
2021/07/13 00:38:49;;;;;;;13.32;12.13;;;;;;;19.33;79.56;97922.72;5032046;28;20060;-63
2021/07/13 00:41:14;;;;;;;14.68;13.18;;;;;;;19.37;79.44;97921.59;5027468;28;20034;-63
2021/07/13 00:43:40;;;;;;;13.82;12.52;;;;;;;19.43;78.65;97923.81;5028781;28;20028;-63
2021/07/13 00:46:05;;;;;;;13.65;12.35;;;;;;;19.39;78.66;97924.94;5027905;28;20102;-63
2021/07/13 00:48:30;;;;;;;15.23;13.80;;;;;;;19.48;78.33;97917.38;5031029;28;20029;-63
2021/07/13 00:50:59;;;;;;;15.57;13.98;;;;;;;19.47;78.38;97915.72;5028219;28;20037;-64
2021/07/13 00:53:26;;;;;;;13.85;12.32;;;;;;;19.32;79.15;97921.88;5024488;28;20025;-63
2021/07/13 00:55:53;;;;;;;13.77;12.57;;;;;;;19.23;79.77;97921.63;5026814;28;20033;-63
2021/07/13 00:58:19;;;;;;;13.40;12.20;;;;;;;19.17;80.71;97913.34;5029537;28;20429;-63
2021/07/13 01:00:44;;;;;;;15.05;13.75;;;;;;;19.11;81.07;97910.28;5026089;28;20351;-64
2021/07/13 01:03:10;;;;;;;13.65;12.35;;;;;;;19.04;80.71;97907.25;5027233;28;20033;-64
2021/07/13 01:05:42;;;;;;;14.05;12.85;;;;;;;19.05;81.01;97919.28;5027021;28;20425;-63
2021/07/13 01:08:37;;;;;;;14.63;13.27;;;;;;;19.06;81.22;97920.97;5024163;28;20037;-63
2021/07/13 01:11:16;;;;;;;14.13;12.70;;;;;;;19.05;81.29;97921.91;5030073;28;20026;-63
2021/07/13 01:14:03;;;;;;;14.25;13.05;;;;;;;19.06;80.97;97915.78;5032084;28;20041;-63
2021/07/13 01:16:45;;;;;;;15.77;14.27;;;;;;;19.05;80.86;97910.69;5031420;28;20373;-63
2021/07/13 01:19:33;;;;;;;13.38;12.15;;;;;;;19.06;81.28;97914.94;5030715;28;20068;-63
2021/07/13 01:22:02;;;;;;;14.48;13.07;;;;;;;19.05;81.37;97918.50;5030940;28;20034;-63
2021/07/13 01:24:46;;;;;;;16.98;13.00;;;;;;;19.01;81.49;97914.44;5030455;28;20371;-63
2021/07/13 01:27:27;;;;;;;14.85;13.55;;;;;;;19.01;81.49;97917.03;5032877;28;20320;-63
2021/07/13 01:29:56;;;;;;;14.25;12.85;;;;;;;18.97;81.45;97915.53;5031140;28;20356;-63
2021/07/13 01:32:26;;;;;;;15.18;13.57;;;;;;;18.99;81.19;97911.09;5026441;28;20316;-63
2021/07/13 01:34:58;;;;;;;16.80;14.27;;;;;;;18.98;80.85;97912.00;5029334;28;20060;-63
2021/07/13 01:37:26;;;;;;;15.48;13.95;;;;;;;18.94;81.18;97908.78;5027302;28;20033;-63
2021/07/13 01:39:54;;;;;;;19.48;13.82;;;;;;;18.87;81.58;97904.06;5031104;28;20418;-63
2021/07/13 01:42:20;;;;;;;15.10;13.63;;;;;;;18.93;81.03;97904.50;5028497;28;20057;-64
2021/07/13 01:44:48;;;;;;;14.48;13.07;;;;;;;18.90;80.71;97898.69;5028411;28;20049;-62
2021/07/13 01:47:14;;;;;;;15.05;13.60;;;;;;;18.77;81.01;97898.63;5033982;28;20061;-62
2021/07/13 01:49:40;;;;;;;15.55;13.80;;;;;;;18.76;81.15;97891.75;5031624;28;20037;-62
2021/07/13 01:52:08;;;;;;;14.70;13.35;;;;;;;18.69;81.26;97890.50;5029949;28;20094;-62
2021/07/13 01:54:34;;;;;;;16.23;14.65;;;;;;;18.52;81.99;97888.97;5027840;28;20048;-62
2021/07/13 01:57:00;;;;;;;15.02;13.57;;;;;;;18.51;82.21;97884.66;5029889;28;20133;-62
2021/07/13 01:59:27;;;;;;;15.10;13.70;;;;;;;18.46;82.87;97878.13;5030473;28;20076;-62
2021/07/13 02:02:01;;;;;;;14.48;13.07;;;;;;;18.47;83.00;97879.75;5031145;28;20092;-62
2021/07/13 02:04:29;;;;;;;13.75;12.45;;;;;;;18.41;83.51;97881.00;5026640;28;20051;-63
2021/07/13 02:06:57;;;;;;;16.10;14.60;;;;;;;18.38;84.30;97878.56;5038422;28;20370;-63
2021/07/13 02:09:23;;;;;;;16.23;14.82;;;;;;;18.33;84.00;97882.41;5030565;28;20318;-63
2021/07/13 02:11:50;;;;;;;15.93;14.43;;;;;;;18.35;84.34;97898.69;5026491;28;20064;-63
2021/07/13 02:14:15;;;;;;;16.33;14.85;;;;;;;18.34;84.51;97891.84;5027236;28;20103;-63
2021/07/13 02:16:41;;;;;;;15.77;14.30;;;;;;;18.32;84.34;97897.13;5025383;28;20033;-63
2021/07/13 02:19:07;;;;;;;15.60;14.07;;;;;;;18.32;84.67;97880.72;5025688;28;20041;-63
2021/07/13 02:21:34;;;;;;;16.58;15.07;;;;;;;18.32;84.67;97881.56;5028173;28;20257;-63
2021/07/13 02:24:00;;;;;;;16.15;14.70;;;;;;;18.30;84.45;97882.56;5028488;28;20141;-63
2021/07/13 02:26:43;;;;;;;16.52;15.13;;;;;;;18.39;83.45;97875.06;5030703;28;20044;-63
2021/07/13 02:29:20;;;;;;;14.75;13.48;;;;;;;18.39;82.67;97871.63;5024697;28;20040;-63
2021/07/13 02:32:11;;;;;;;16.38;14.88;;;;;;;18.32;82.66;97871.19;5027627;28;20091;-64
2021/07/13 02:34:41;;;;;;;15.88;14.48;;;;;;;18.25;82.85;97875.91;4972854;28;20046;-63
2021/07/13 02:37:08;;;;;;;15.55;13.93;;;;;;;18.25;83.20;97875.91;4971418;28;20074;-63
2021/07/13 02:39:38;;;;;;;16.15;14.57;;;;;;;18.21;83.10;97866.66;4971113;28;20400;-63
2021/07/13 02:42:05;;;;;;;14.57;13.30;;;;;;;18.23;83.04;97862.22;4972106;28;20031;-63
2021/07/13 02:44:33;;;;;;;16.63;15.13;;;;;;;18.22;83.31;97865.72;4972692;28;20034;-63
2021/07/13 02:46:59;;;;;;;15.10;13.70;;;;;;;18.17;83.30;97865.16;4971941;28;20069;-63
2021/07/13 02:49:28;;;;;;;17.55;15.73;;;;;;;18.13;83.87;97863.69;4972622;28;20034;-63
2021/07/13 02:51:55;;;;;;;14.77;13.23;;;;;;;18.12;83.61;97862.00;4970620;28;20129;-63
2021/07/13 02:54:23;;;;;;;16.15;14.52;;;;;;;18.09;83.99;97849.25;4972845;28;20117;-63
2021/07/13 02:56:49;;;;;;;17.13;15.32;;;;;;;18.03;84.06;97854.81;4969405;28;20093;-63
2021/07/13 02:59:17;;;;;;;17.70;15.48;;;;;;;17.96;84.61;97847.50;4969835;28;20601;-63
2021/07/13 03:01:44;;;;;;;17.02;15.52;;;;;;;17.91;84.38;97849.56;4970166;28;20536;-63
2021/07/13 03:04:10;;;;;;;19.50;14.90;;;;;;;17.85;84.04;97857.69;4970351;28;20089;-63
2021/07/13 03:06:37;;;;;;;15.05;13.73;;;;;;;17.87;84.32;97856.66;4971754;28;20089;-63
2021/07/13 03:09:05;;;;;;;17.05;15.45;;;;;;;17.87;84.92;97856.66;4971449;28;20034;-62
2021/07/13 03:11:35;;;;;;;17.48;15.80;;;;;;;17.87;85.38;97854.06;4999918;28;20045;-62
2021/07/13 03:14:03;;;;;;;19.70;16.50;;;;;;;17.86;85.93;97857.63;5028246;28;20025;-62
2021/07/13 03:16:33;;;;;;;17.45;15.73;;;;;;;17.87;85.90;97864.44;5027240;28;20095;-62
2021/07/13 03:19:00;;;;;;;15.95;14.27;;;;;;;17.83;85.71;97867.31;5026962;28;20788;-62
2021/07/13 03:21:28;;;;;;;17.77;16.05;;;;;;;17.87;85.61;97874.81;5025799;28;20049;-62
2021/07/13 03:23:59;;;;;;;17.20;15.43;;;;;;;17.89;85.07;97862.59;5030290;28;20413;-61
2021/07/13 03:26:29;;;;;;;14.65;13.07;;;;;;;17.97;84.03;97857.78;5031753;28;20040;-62
2021/07/13 03:28:57;;;;;;;15.80;14.20;;;;;;;17.99;83.83;97858.50;5031607;28;20113;-63
2021/07/13 03:31:23;;;;;;;14.55;13.25;;;;;;;17.96;83.91;97847.50;5028743;28;20014;-63
2021/07/13 03:33:50;;;;;;;14.63;13.23;;;;;;;17.97;84.02;97855.19;5027306;28;20048;-63
2021/07/13 03:36:18;;;;;;;16.42;14.75;;;;;;;18.02;84.00;97847.97;5032616;28;20256;-62
2021/07/13 03:38:44;;;;;;;14.90;13.60;;;;;;;18.06;83.68;97843.41;5029723;28;20770;-62
2021/07/13 03:41:10;;;;;;;17.27;15.55;;;;;;;18.01;83.78;97842.84;5029070;28;20428;-62
2021/07/13 03:43:35;;;;;;;17.33;15.55;;;;;;;18.07;83.37;97834.72;5029934;28;20037;-62
2021/07/13 03:46:01;;;;;;;17.00;15.07;;;;;;;18.09;83.21;97835.44;5027309;28;20106;-63
2021/07/13 03:48:27;;;;;;;17.35;15.57;;;;;;;18.17;83.40;97844.41;5027567;28;20397;-62
2021/07/13 03:50:53;;;;;;;17.20;15.50;;;;;;;18.09;83.85;97844.06;5032973;28;20473;-62
2021/07/13 03:53:18;;;;;;;18.27;15.50;;;;;;;18.15;83.83;97838.50;5030227;28;20056;-62
2021/07/13 03:55:44;;;;;;;19.17;17.38;;;;;;;18.18;84.24;97848.69;5028709;28;20045;-62
2021/07/13 03:58:09;;;;;;;16.58;14.88;;;;;;;18.28;83.97;97846.34;5026250;28;20121;-62
2021/07/13 04:00:35;;;;;;;19.15;14.77;;;;;;;18.39;83.94;97840.47;5027489;28;20306;-62
2021/07/13 04:03:01;;;;;;;16.83;14.93;;;;;;;18.51;83.82;97839.69;5028642;28;20330;-62
2021/07/13 04:05:27;;;;;;;16.52;14.85;;;;;;;18.60;83.65;97833.94;5030597;28;20372;-62
2021/07/13 04:07:53;;;;;;;15.32;13.77;;;;;;;18.70;82.91;97824.66;5032999;28;20072;-62
2021/07/13 04:10:18;;;;;;;16.25;14.77;;;;;;;18.79;82.60;97824.06;5029556;28;20136;-62
2021/07/13 04:12:44;;;;;;;17.95;15.95;;;;;;;18.89;81.91;97827.72;5029054;28;20322;-62
2021/07/13 04:15:12;;;;;;;15.60;14.10;;;;;;;19.01;81.45;97826.09;5026196;28;20033;-62
2021/07/13 04:17:37;;;;;;;18.10;16.33;;;;;;;19.12;81.44;97831.41;5025555;28;20470;-62
2021/07/13 04:20:07;;;;;;;18.52;16.70;;;;;;;19.22;81.92;97834.22;5029541;28;20092;-62
2021/07/13 04:22:35;;;;;;;17.08;15.48;;;;;;;19.32;81.46;97838.69;5030278;28;20057;-62
2021/07/13 04:25:00;;;;;;;16.10;14.60;;;;;;;19.44;81.00;97837.91;5028156;28;20095;-62
2021/07/13 04:27:26;;;;;;;17.17;15.38;;;;;;;19.54;80.65;97835.53;5024804;28;20117;-62
2021/07/13 04:29:52;;;;;;;18.55;16.63;;;;;;;19.54;80.77;97833.75;5027759;28;20542;-62
2021/07/13 04:32:18;;;;;;;24.23;20.42;;;;;;;19.61;82.81;97837.59;5026507;28;20021;-62
2021/07/13 04:34:43;;;;;;;17.90;16.17;;;;;;;19.73;81.26;97841.13;5026568;28;20116;-62
2021/07/13 04:37:08;;;;;;;18.40;16.55;;;;;;;19.82;80.98;97834.47;5024999;28;20040;-62
2021/07/13 04:39:34;;;;;;;19.33;17.42;;;;;;;19.99;80.23;97841.94;5026830;28;20034;-62
2021/07/13 04:41:59;;;;;;;24.92;22.33;;;;;;;20.10;80.83;97838.59;5027722;28;20368;-62
2021/07/13 04:44:25;;;;;;;23.30;20.92;;;;;;;20.11;81.82;97840.25;5026874;28;20410;-62
2021/07/13 04:46:52;;;;;;;22.85;20.48;;;;;;;20.23;81.79;97837.63;5028028;28;20037;-63
2021/07/13 04:49:17;;;;;;;23.25;20.83;;;;;;;20.40;81.75;97824.28;5025986;28;20150;-62
2021/07/13 04:51:43;;;;;;;23.63;21.17;;;;;;;20.44;80.80;97822.28;5025957;28;20416;-62
2021/07/13 04:54:08;;;;;;;21.33;19.13;;;;;;;20.63;80.50;97832.19;5029567;28;20078;-62
2021/07/13 04:56:33;;;;;;;20.80;18.48;;;;;;;20.73;79.96;97820.16;5028409;28;20032;-62
2021/07/13 04:58:59;;;;;;;23.83;21.38;;;;;;;20.76;79.30;97818.16;5029237;28;20040;-62
2021/07/13 05:01:27;;;;;;;21.77;19.58;;;;;;;20.94;79.34;97824.66;5030237;28;20040;-61
2021/07/13 05:03:53;;;;;;;22.48;20.27;;;;;;;20.82;78.85;97816.91;5026646;28;20021;-62
2021/07/13 05:06:18;;;;;;;20.23;18.33;;;;;;;21.07;78.80;97834.16;5025791;28;20343;-62
2021/07/13 05:08:44;;;;;;;21.23;19.08;;;;;;;21.19;78.49;97844.53;5024852;28;20036;-62
2021/07/13 05:11:10;;;;;;;24.02;21.75;;;;;;;21.25;77.97;97833.66;5026463;28;20141;-63
2021/07/13 05:13:36;;;;;;;22.98;20.65;;;;;;;21.40;77.35;97842.09;5029035;28;20030;-63
2021/07/13 05:16:02;;;;;;;23.15;20.33;;;;;;;21.55;76.78;97842.72;5027447;28;20030;-62
2021/07/13 05:18:27;;;;;;;21.38;19.20;;;;;;;21.66;76.45;97840.97;5030023;28;20030;-63
2021/07/13 05:21:03;;;;;;;20.30;18.27;;;;;;;21.81;76.10;97842.38;5028714;28;20049;-63
2021/07/13 05:23:28;;;;;;;21.08;19.10;;;;;;;21.96;75.54;97834.34;5031671;28;20349;-68
2021/07/13 05:25:53;;;;;;;22.67;19.38;;;;;;;22.09;75.06;97824.63;5028126;28;20036;-67
2021/07/13 05:28:19;;;;;;;21.50;19.08;;;;;;;22.04;74.96;97831.97;5025058;28;20048;-67
2021/07/13 05:30:45;;;;;;;19.98;17.90;;;;;;;22.10;75.38;97841.97;5029390;28;20033;-63
2021/07/13 05:33:12;;;;;;;23.08;19.65;;;;;;;22.19;74.50;97834.22;5017987;28;20371;-63
2021/07/13 05:35:38;;;;;;;21.08;19.02;;;;;;;22.24;73.92;97839.06;5027914;28;20317;-63
2021/07/13 05:38:04;;;;;;;19.05;17.00;;;;;;;22.33;74.29;97836.56;5026502;28;20030;-61
2021/07/13 05:40:30;;;;;;;21.63;19.50;;;;;;;22.27;73.62;97828.41;5024829;28;20129;-63
2021/07/13 05:42:56;;;;;;;21.00;18.92;;;;;;;22.38;73.49;97830.16;5025514;28;20069;-61
2021/07/13 05:45:22;;;;;;;22.00;17.75;;;;;;;22.56;73.44;97828.69;5024525;28;20037;-63
2021/07/13 05:47:48;;;;;;;20.85;18.83;;;;;;;22.62;73.04;97823.78;5024431;28;20411;-63
2021/07/13 05:50:13;;;;;;;20.95;18.42;;;;;;;22.72;71.92;97818.69;5027964;28;20064;-63
2021/07/13 05:52:39;;;;;;;22.00;18.50;;;;;;;22.81;71.70;97822.34;5026959;28;20386;-63
2021/07/13 05:55:05;;;;;;;20.75;18.30;;;;;;;22.70;72.11;97821.41;5025535;28;20363;-63
2021/07/13 05:57:31;;;;;;;21.98;19.73;;;;;;;22.77;72.04;97827.00;5030145;28;20038;-61
2021/07/13 05:59:57;;;;;;;21.55;19.48;;;;;;;22.46;73.20;97830.38;5035476;28;20032;-63
2021/07/13 06:02:23;;;;;;;21.50;19.33;;;;;;;22.24;74.34;97833.84;5026973;28;20391;-63
2021/07/13 06:04:49;;;;;;;23.45;19.80;;;;;;;22.39;74.13;97830.03;5030994;28;20026;-62
2021/07/13 06:07:15;;;;;;;23.85;20.20;;;;;;;22.29;74.18;97831.72;5033242;28;20298;-63
2021/07/13 06:09:41;;;;;;;19.98;17.77;;;;;;;22.54;73.40;97830.59;5034199;28;20064;-70
2021/07/13 06:12:07;;;;;;;23.20;20.77;;;;;;;22.25;73.49;97820.69;5033762;28;20310;-63
2021/07/13 06:14:36;;;;;;;20.35;18.25;;;;;;;22.40;73.58;97823.03;5031044;28;20075;-63
2021/07/13 06:17:06;;;;;;;21.65;19.50;;;;;;;22.79;72.70;97821.66;5031089;28;20117;-63
2021/07/13 06:19:32;;;;;;;20.63;18.42;;;;;;;23.04;71.82;97823.91;5033789;28;20419;-64
2021/07/13 06:21:57;;;;;;;19.45;17.52;;;;;;;23.24;70.03;97815.25;5031623;28;20026;-63
2021/07/13 06:24:23;;;;;;;17.73;16.10;;;;;;;23.53;69.70;97810.22;5031419;28;20120;-63
2021/07/13 06:26:48;;;;;;;21.05;19.20;;;;;;;23.84;68.60;97808.44;5030109;28;20025;-63
2021/07/13 06:29:13;;;;;;;20.30;18.15;;;;;;;23.99;67.61;97802.69;5031355;28;20033;-64
2021/07/13 06:31:39;;;;;;;21.35;19.27;;;;;;;23.91;67.74;97801.69;5025849;28;20029;-63
2021/07/13 06:34:04;;;;;;;18.67;16.73;;;;;;;24.04;67.53;97799.69;5032939;28;20029;-63
2021/07/13 06:36:30;;;;;;;19.17;17.20;;;;;;;24.18;66.58;97799.34;5032627;28;20040;-63
2021/07/13 06:38:55;;;;;;;18.42;16.63;;;;;;;24.10;67.13;97805.19;5029523;28;20067;-63
2021/07/13 06:41:21;;;;;;;18.17;16.25;;;;;;;24.10;67.58;97807.81;5034277;28;20305;-63
2021/07/13 06:43:46;;;;;;;19.75;17.85;;;;;;;24.05;66.89;97812.66;5032153;28;20424;-64
2021/07/13 06:46:11;;;;;;;19.88;17.88;;;;;;;23.79;68.08;97808.81;5029528;28;20028;-63
2021/07/13 06:48:37;;;;;;;17.33;15.82;;;;;;;24.22;67.10;97808.59;5033393;28;20040;-63
2021/07/13 06:51:02;;;;;;;18.67;16.90;;;;;;;24.41;66.72;97802.56;5033923;28;20016;-64
2021/07/13 06:53:28;;;;;;;16.98;15.40;;;;;;;24.52;65.79;97816.38;5035753;28;20124;-64
2021/07/13 06:55:53;;;;;;;18.20;16.40;;;;;;;24.90;64.20;97809.53;5031557;28;20041;-64
2021/07/13 06:58:19;;;;;;;18.00;16.45;;;;;;;25.14;63.69;97809.09;5030684;28;20039;-64
2021/07/13 07:00:45;;;;;;;16.88;15.27;;;;;;;25.62;62.07;97811.66;5030340;28;20033;-64
2021/07/13 07:03:10;;;;;;;19.45;15.98;;;;;;;25.87;61.05;97806.59;5027115;28;20033;-64
2021/07/13 07:05:36;;;;;;;18.83;16.65;;;;;;;25.99;60.62;97804.59;5027960;28;20056;-64
2021/07/13 07:08:02;;;;;;;18.23;16.73;;;;;;;26.07;59.99;97798.59;5033244;28;20043;-64
2021/07/13 07:10:27;;;;;;;17.60;15.98;;;;;;;26.17;59.40;97805.47;5028751;28;20045;-64
2021/07/13 07:12:53;;;;;;;18.45;16.83;;;;;;;26.19;59.51;97800.88;5028969;28;20282;-64
2021/07/13 07:15:19;;;;;;;18.00;16.48;;;;;;;26.31;59.42;97804.16;5029314;28;20035;-63
2021/07/13 07:17:53;;;;;;;17.55;16.05;;;;;;;26.24;59.09;97803.94;5027066;28;20312;-67
2021/07/13 07:20:26;;;;;;;18.80;16.97;;;;;;;25.99;59.82;97801.97;5031943;28;20045;-67
2021/07/13 07:22:51;;;;;;;17.88;16.30;;;;;;;26.15;60.25;97791.66;5035064;28;20343;-63
2021/07/13 07:25:17;;;;;;;17.02;15.43;;;;;;;26.40;59.75;97787.50;5027987;28;20199;-63
2021/07/13 07:27:43;;;;;;;17.33;15.73;;;;;;;26.54;58.71;97796.69;5028324;28;20411;-63
2021/07/13 07:30:10;;;;;;;18.42;16.70;;;;;;;26.71;57.94;97791.44;5028712;28;20025;-63
2021/07/13 07:32:38;;;;;;;19.38;17.70;;;;;;;26.30;58.75;97782.34;5030231;28;20236;-63
2021/07/13 07:35:06;;;;;;;17.25;15.75;;;;;;;25.88;61.94;97795.13;5030135;28;20295;-63
2021/07/13 07:37:32;;;;;;;16.13;14.55;;;;;;;26.25;60.64;97786.38;5029950;28;20056;-63
2021/07/13 07:39:57;;;;;;;16.88;15.35;;;;;;;26.56;58.76;97787.69;5032412;28;20104;-63
2021/07/13 07:42:23;;;;;;;17.02;15.65;;;;;;;26.59;58.20;97776.88;5030469;28;20033;-63
2021/07/13 07:44:48;;;;;;;17.65;16.15;;;;;;;26.33;58.80;97779.41;5029654;28;20025;-63
2021/07/13 07:47:14;;;;;;;17.08;15.30;;;;;;;26.36;58.95;97771.22;5026826;28;20036;-64
2021/07/13 07:49:39;;;;;;;16.52;15.13;;;;;;;26.71;58.03;97774.84;5026408;28;20032;-64
2021/07/13 07:52:05;;;;;;;17.40;15.88;;;;;;;26.79;58.32;97767.00;5028514;28;20387;-64
2021/07/13 07:54:31;;;;;;;17.85;16.25;;;;;;;26.88;58.29;97773.19;5029351;28;20037;-64
2021/07/13 07:56:57;;;;;;;18.08;16.15;;;;;;;26.95;58.85;97771.59;5030149;28;20039;-63
2021/07/13 07:59:22;;;;;;;14.95;13.75;;;;;;;26.95;58.88;97771.59;5030492;28;20029;-63
2021/07/13 08:01:48;;;;;;;15.80;14.60;;;;;;;27.18;58.31;97770.97;5025264;28;20032;-64
2021/07/13 08:04:13;;;;;;;15.55;14.05;;;;;;;27.25;58.47;97763.28;5025058;28;20430;-64
2021/07/13 08:06:39;;;;;;;14.98;13.60;;;;;;;27.45;58.17;97771.81;5024826;28;20025;-64
2021/07/13 08:09:07;;;;;;;15.27;13.77;;;;;;;27.55;57.24;97773.38;5029275;28;20055;-64
2021/07/13 08:11:32;;;;;;;14.68;13.10;;;;;;;27.85;55.49;97761.50;5027346;28;20315;-64
2021/07/13 08:14:00;;;;;;;14.52;13.30;;;;;;;27.85;55.06;97766.78;5027603;28;20028;-64
2021/07/13 08:16:26;;;;;;;15.25;13.88;;;;;;;28.12;55.49;97753.41;5033437;28;20057;-64
2021/07/13 08:18:52;;;;;;;14.80;13.50;;;;;;;28.28;55.13;97759.69;5029767;28;20365;-64
2021/07/13 08:21:19;;;;;;;15.02;13.73;;;;;;;28.40;55.09;97755.75;5030160;28;20128;-64
2021/07/13 08:23:46;;;;;;;15.77;14.38;;;;;;;28.67;54.16;97752.84;5022963;28;20111;-64
2021/07/13 08:26:11;;;;;;;15.32;14.00;;;;;;;28.75;53.87;97752.88;5024564;28;20387;-64
2021/07/13 08:28:37;;;;;;;14.38;13.07;;;;;;;28.93;53.26;97758.81;5027067;28;20179;-64
2021/07/13 08:31:02;;;;;;;14.85;13.75;;;;;;;29.19;54.13;97758.63;5025793;28;20354;-64
2021/07/13 08:33:27;;;;;;;14.25;13.15;;;;;;;29.26;52.32;97758.78;5030161;28;20603;-64
2021/07/13 08:35:53;;;;;;;13.55;12.55;;;;;;;29.41;52.49;97754.47;5028823;28;20056;-64
2021/07/13 08:38:18;;;;;;;13.48;12.25;;;;;;;29.49;51.96;97762.41;5027591;28;20038;-64
2021/07/13 08:40:45;;;;;;;13.90;12.75;;;;;;;29.48;51.28;97744.91;5027389;28;20029;-64
2021/07/13 08:43:10;;;;;;;14.95;13.85;;;;;;;29.58;51.79;97745.53;5027684;28;20449;-64
2021/07/13 08:45:36;;;;;;;13.30;12.20;;;;;;;29.92;51.36;97739.97;5029065;28;20037;-64
2021/07/13 08:48:01;;;;;;;15.80;13.00;;;;;;;29.96;50.51;97738.63;5032001;28;20025;-64
2021/07/13 08:50:27;;;;;;;12.77;11.68;;;;;;;30.24;49.84;97737.19;5029696;28;20288;-64
2021/07/13 08:52:52;;;;;;;12.98;11.85;;;;;;;30.43;49.07;97743.03;5027288;28;20036;-64
2021/07/13 08:55:18;;;;;;;13.50;12.35;;;;;;;30.67;49.03;97735.75;5027166;28;20140;-64
2021/07/13 08:57:45;;;;;;;14.00;12.75;;;;;;;30.68;48.38;97741.88;5026464;28;20087;-64
2021/07/13 09:00:14;;;;;;;13.77;12.52;;;;;;;30.95;47.63;97728.06;5027818;28;20387;-64
2021/07/13 09:03:11;;;;;;;14.27;12.60;;;;;;;31.08;47.25;97730.13;5027584;28;20033;-64
2021/07/13 09:05:46;;;;;;;13.60;12.18;;;;;;;31.28;46.18;97723.31;5027533;28;20167;-64
2021/07/13 09:08:13;;;;;;;13.02;11.82;;;;;;;31.15;47.49;97726.56;5028269;28;20033;-64
2021/07/13 09:10:38;;;;;;;13.18;11.93;;;;;;;31.12;46.94;97720.81;5035001;28;20426;-64
2021/07/13 09:13:05;;;;;;;12.65;11.63;;;;;;;30.98;47.40;97718.97;5025665;28;20128;-64
2021/07/13 09:15:30;;;;;;;12.23;11.15;;;;;;;31.21;46.84;97720.56;5023549;28;20061;-64
2021/07/13 09:17:55;;;;;;;12.25;11.05;;;;;;;31.27;45.70;97726.97;5026666;28;20064;-64
2021/07/13 09:20:31;;;;;;;12.05;11.05;;;;;;;31.56;46.26;97721.72;5027389;28;20052;-64
2021/07/13 09:23:06;;;;;;;11.88;10.60;;;;;;;31.67;45.88;97723.91;5025753;28;20030;-64
2021/07/13 09:25:36;;;;;;;12.57;11.50;;;;;;;31.60;45.75;97719.53;5027159;28;20029;-64
2021/07/13 09:28:08;;;;;;;11.23;10.23;;;;;;;31.61;44.92;97713.22;5029546;28;20032;-64
2021/07/13 09:30:35;;;;;;;16.33;11.60;;;;;;;31.62;45.32;97714.84;5029913;28;20029;-64
2021/07/13 09:33:12;;;;;;;15.25;12.10;;;;;;;31.16;45.67;97706.22;5031860;28;20298;-64
2021/07/13 09:35:37;;;;;;;11.48;10.55;;;;;;;31.64;45.29;97711.03;5029667;28;20335;-64
2021/07/13 09:38:03;;;;;;;11.27;10.30;;;;;;;31.66;44.93;97708.16;5035251;28;20126;-65
2021/07/13 09:40:36;;;;;;;12.52;11.38;;;;;;;31.50;45.23;97703.03;5035322;28;20040;-65
2021/07/13 09:43:01;;;;;;;11.82;10.88;;;;;;;31.89;44.61;97700.94;5029617;28;20059;-64
2021/07/13 09:45:31;;;;;;;11.70;10.35;;;;;;;32.01;43.39;97698.59;5031544;28;20025;-64
2021/07/13 09:47:59;;;;;;;12.68;11.32;;;;;;;32.09;42.92;97687.91;5031690;28;20343;-64
2021/07/13 09:50:39;;;;;;;11.88;10.77;;;;;;;32.38;42.83;97677.19;5036019;28;20030;-64
2021/07/13 09:53:07;;;;;;;10.82;9.73;;;;;;;32.45;42.76;97670.13;5033406;28;20037;-64
2021/07/13 09:55:32;;;;;;;13.95;12.60;;;;;;;32.48;41.46;97680.34;5029760;28;20095;-64
2021/07/13 09:58:21;;;;;;;10.90;9.93;;;;;;;32.67;40.81;97678.09;5026785;28;20033;-64
2021/07/13 10:00:49;;;;;;;11.38;10.65;;;;;;;32.81;41.42;97677.19;5034678;28;20112;-64
2021/07/13 10:03:16;;;;;;;11.93;10.77;;;;;;;32.85;39.91;97686.41;5026998;28;20099;-64
2021/07/13 10:05:44;;;;;;;11.48;10.30;;;;;;;33.18;40.26;97676.06;5030603;28;20386;-64
2021/07/13 10:08:14;;;;;;;11.38;10.32;;;;;;;33.14;40.04;97677.47;5032069;28;20043;-63
2021/07/13 10:10:42;;;;;;;10.82;9.63;;;;;;;33.39;39.53;97673.31;5029590;28;20036;-63
2021/07/13 10:13:10;;;;;;;19.63;17.77;;;;;;;33.47;39.39;97665.19;5029884;28;20086;-65
2021/07/13 10:15:36;;;;;;;33.70;25.13;;;;;;;33.61;38.41;97656.22;5032964;28;20047;-63
2021/07/13 10:18:03;;;;;;;57.83;38.97;;;;;;;33.81;38.34;97659.03;5031894;28;20022;-64
2021/07/13 10:20:29;;;;;;;60.28;42.35;;;;;;;34.04;37.81;97658.66;5032294;28;20136;-63
2021/07/13 10:22:56;;;;;;;44.65;30.20;;;;;;;34.18;37.55;97650.56;5030761;28;20033;-64
2021/07/13 10:25:34;;;;;;;27.92;20.17;;;;;;;34.40;37.04;97646.69;5033720;28;20032;-63
2021/07/13 10:28:00;;;;;;;18.38;14.68;;;;;;;34.34;37.09;97636.84;5028961;28;20056;-64
2021/07/13 10:30:25;;;;;;;15.13;12.52;;;;;;;34.41;35.92;97631.53;5031507;28;20610;-63
2021/07/13 10:32:50;;;;;;;17.42;13.68;;;;;;;34.76;35.49;97640.16;5025453;28;20056;-64
2021/07/13 10:35:23;;;;;;;13.48;10.98;;;;;;;34.86;34.89;97624.56;5031738;28;20484;-64
2021/07/13 10:38:00;;;;;;;12.70;8.75;;;;;;;35.13;35.06;97626.19;5032089;28;20044;-63
2021/07/13 10:40:25;;;;;;;13.15;8.52;;;;;;;35.29;34.56;97620.41;5027919;28;20043;-64
2021/07/13 10:42:57;;;;;;;8.65;7.93;;;;;;;35.50;31.32;97621.16;5030468;28;20324;-64
2021/07/13 10:45:44;;;;;;;8.63;7.78;;;;;;;35.59;32.27;97618.03;5027190;28;20117;-64
2021/07/13 10:48:17;;;;;;;9.57;7.50;;;;;;;35.68;31.75;97621.31;5030447;28;20033;-64
2021/07/13 10:51:17;;;;;;;8.60;7.68;;;;;;;35.66;30.91;97618.84;5029964;28;20079;-63
2021/07/13 10:53:45;;;;;;;8.60;7.45;;;;;;;35.97;31.90;97612.75;4994913;28;20052;-64
2021/07/13 10:56:18;;;;;;;7.93;7.22;;;;;;;35.79;31.55;97617.97;5036321;28;20033;-64
2021/07/13 10:58:49;;;;;;;9.88;8.27;;;;;;;35.69;30.77;97610.41;5031830;28;20072;-64
2021/07/13 11:01:33;;;;;;;9.63;7.40;;;;;;;35.58;31.34;97621.72;5029539;28;20112;-64
2021/07/13 11:04:09;;;;;;;9.52;8.25;;;;;;;35.73;30.13;97610.84;5027507;28;20316;-64
2021/07/13 11:06:41;;;;;;;10.93;7.28;;;;;;;35.86;30.31;97617.94;5030140;28;20042;-64
2021/07/13 11:09:21;;;;;;;10.32;8.15;;;;;;;36.13;29.78;97612.25;5031777;28;20029;-64
2021/07/13 11:11:47;;;;;;;12.07;7.40;;;;;;;35.56;32.57;97621.13;5026696;28;20398;-64
2021/07/13 11:14:15;;;;;;;9.23;8.32;;;;;;;35.90;30.51;97611.16;5027749;28;20028;-64
2021/07/13 11:16:42;;;;;;;11.70;8.38;;;;;;;35.98;30.84;97610.91;5027593;28;20102;-64
2021/07/13 11:19:17;;;;;;;9.95;7.30;;;;;;;36.09;31.23;97615.53;5031131;28;20044;-65
2021/07/13 11:21:52;;;;;;;11.02;8.18;;;;;;;36.06;29.86;97611.47;5028872;28;20108;-64
2021/07/13 11:24:23;;;;;;;12.80;7.63;;;;;;;35.92;30.34;97615.22;5030711;28;20029;-64